Terminal Aerodrome Forecast
Issued by NWS

Home | Current Version | Previous Version | Text Only | Print | Product List | Glossary On
Versions: 1 2 3 4 5 6 7 8 9 10 11 12 13 14
427
FTPA31 PHFO 200537
TAFSTU
TAF
NSTU 200537Z 2006/2106 10012KT P6SM VCSH SCT015 BKN040
      TEMPO 2006/2010 5SM SHRA BR BKN015
     FM202000 10015G22KT P6SM SCT015 SCT040=

USA.gov is the U.S. government's official web portal to all federal, state and local government web resources and services.